Terminal Aerodrome Forecast
Issued by NWS

Home | Current Version | Previous Version | Text Only | Print | Product List | Glossary On
Versions: 1 2 3 4 5 6 7 8 9 10 11 12 13 14 15 16 17 18 19 20 21
000
FTUS43 KMQT 290731 AAA
TAFSAW
TAF AMD
KSAW 290731Z 2908/3006 18011KT P6SM -SN OVC020
      TEMPO 2908/2909 -SN BKN010
     FM290900 18004KT 2SM -SN BR OVC008
     FM291000 18004KT 1SM -SN BR OVC004
     FM291200 25004KT 3SM BR OVC006
     FM291400 32012G19KT P6SM OVC010
     FM291800 33015G25KT P6SM OVC015=

USA.gov is the U.S. government's official web portal to all federal, state and local government web resources and services.